sensor_id;sensor_type;location;lat;lon;timestamp;P1;durP1;ratioP1;P2;durP2;ratioP2
21754;SDS011;11039;50.028;19.938;2022-12-18T00:01:42;25.48;;;17.38;;
21754;SDS011;11039;50.028;19.938;2022-12-18T00:04:15;22.65;;;16.98;;
21754;SDS011;11039;50.028;19.938;2022-12-18T00:06:42;24.98;;;16.63;;
21754;SDS011;11039;50.028;19.938;2022-12-18T00:09:08;24.70;;;16.25;;
21754;SDS011;11039;50.028;19.938;2022-12-18T00:11:34;24.33;;;17.52;;
21754;SDS011;11039;50.028;19.938;2022-12-18T00:14:00;24.98;;;17.33;;
21754;SDS011;11039;50.028;19.938;2022-12-18T00:16:27;24.15;;;17.17;;
21754;SDS011;11039;50.028;19.938;2022-12-18T00:18:54;23.33;;;16.52;;
21754;SDS011;11039;50.028;19.938;2022-12-18T00:21:21;25.17;;;17.35;;
21754;SDS011;11039;50.028;19.938;2022-12-18T00:23:47;23.70;;;16.60;;
21754;SDS011;11039;50.028;19.938;2022-12-18T00:26:14;23.85;;;17.27;;
21754;SDS011;11039;50.028;19.938;2022-12-18T00:28:41;22.23;;;16.65;;
21754;SDS011;11039;50.028;19.938;2022-12-18T00:31:15;23.67;;;16.42;;
21754;SDS011;11039;50.028;19.938;2022-12-18T00:33:41;24.73;;;17.88;;
21754;SDS011;11039;50.028;19.938;2022-12-18T00:36:09;22.73;;;17.08;;
21754;SDS011;11039;50.028;19.938;2022-12-18T00:38:36;23.55;;;16.85;;
21754;SDS011;11039;50.028;19.938;2022-12-18T00:41:02;24.38;;;16.70;;
21754;SDS011;11039;50.028;19.938;2022-12-18T00:43:28;23.00;;;16.60;;
21754;SDS011;11039;50.028;19.938;2022-12-18T00:45:55;27.45;;;17.73;;
21754;SDS011;11039;50.028;19.938;2022-12-18T00:48:21;22.17;;;16.42;;
21754;SDS011;11039;50.028;19.938;2022-12-18T00:50:48;23.08;;;16.92;;
21754;SDS011;11039;50.028;19.938;2022-12-18T00:53:14;21.25;;;15.75;;
21754;SDS011;11039;50.028;19.938;2022-12-18T00:55:40;22.08;;;16.55;;
21754;SDS011;11039;50.028;19.938;2022-12-18T00:58:07;22.40;;;16.02;;
21754;SDS011;11039;50.028;19.938;2022-12-18T01:00:33;22.45;;;17.00;;
21754;SDS011;11039;50.028;19.938;2022-12-18T01:02:59;22.13;;;16.20;;
21754;SDS011;11039;50.028;19.938;2022-12-18T01:05:25;22.83;;;15.60;;
21754;SDS011;11039;50.028;19.938;2022-12-18T01:07:51;24.90;;;16.25;;
21754;SDS011;11039;50.028;19.938;2022-12-18T01:10:17;22.20;;;15.65;;
21754;SDS011;11039;50.028;19.938;2022-12-18T01:12:43;22.75;;;16.30;;
21754;SDS011;11039;50.028;19.938;2022-12-18T01:15:09;21.83;;;15.93;;
21754;SDS011;11039;50.028;19.938;2022-12-18T01:17:37;20.52;;;15.38;;
21754;SDS011;11039;50.028;19.938;2022-12-18T01:20:03;22.02;;;15.65;;
21754;SDS011;11039;50.028;19.938;2022-12-18T01:22:29;23.35;;;15.77;;
21754;SDS011;11039;50.028;19.938;2022-12-18T01:24:55;21.92;;;15.82;;
21754;SDS011;11039;50.028;19.938;2022-12-18T01:27:22;23.67;;;16.08;;
21754;SDS011;11039;50.028;19.938;2022-12-18T01:29:48;23.02;;;16.70;;
21754;SDS011;11039;50.028;19.938;2022-12-18T01:32:15;24.42;;;16.67;;
21754;SDS011;11039;50.028;19.938;2022-12-18T01:34:41;23.58;;;16.15;;
21754;SDS011;11039;50.028;19.938;2022-12-18T01:37:07;22.55;;;15.90;;
21754;SDS011;11039;50.028;19.938;2022-12-18T01:39:33;21.77;;;16.00;;
21754;SDS011;11039;50.028;19.938;2022-12-18T01:41:59;22.65;;;16.05;;
21754;SDS011;11039;50.028;19.938;2022-12-18T01:47:15;22.52;;;16.38;;
21754;SDS011;11039;50.028;19.938;2022-12-18T01:49:41;22.85;;;15.50;;
21754;SDS011;11039;50.028;19.938;2022-12-18T01:52:07;22.40;;;15.93;;
21754;SDS011;11039;50.028;19.938;2022-12-18T01:54:33;22.30;;;15.60;;
21754;SDS011;11039;50.028;19.938;2022-12-18T01:56:59;22.15;;;15.68;;
21754;SDS011;11039;50.028;19.938;2022-12-18T01:59:26;21.00;;;15.15;;
21754;SDS011;11039;50.028;19.938;2022-12-18T02:01:53;21.38;;;15.93;;
21754;SDS011;11039;50.028;19.938;2022-12-18T02:04:22;21.58;;;15.73;;
21754;SDS011;11039;50.028;19.938;2022-12-18T02:09:35;22.58;;;16.13;;
21754;SDS011;11039;50.028;19.938;2022-12-18T02:12:13;21.48;;;15.30;;
21754;SDS011;11039;50.028;19.938;2022-12-18T02:14:47;21.35;;;15.57;;
21754;SDS011;11039;50.028;19.938;2022-12-18T02:17:17;21.35;;;15.90;;
21754;SDS011;11039;50.028;19.938;2022-12-18T02:27:08;21.05;;;15.68;;
21754;SDS011;11039;50.028;19.938;2022-12-18T02:29:37;21.45;;;14.95;;
21754;SDS011;11039;50.028;19.938;2022-12-18T02:32:06;20.92;;;15.02;;
21754;SDS011;11039;50.028;19.938;2022-12-18T02:34:35;22.70;;;15.88;;
21754;SDS011;11039;50.028;19.938;2022-12-18T02:37:04;21.58;;;15.40;;
21754;SDS011;11039;50.028;19.938;2022-12-18T02:39:33;22.65;;;15.93;;
21754;SDS011;11039;50.028;19.938;2022-12-18T02:41:59;22.90;;;16.52;;
21754;SDS011;11039;50.028;19.938;2022-12-18T02:44:32;20.92;;;15.40;;
21754;SDS011;11039;50.028;19.938;2022-12-18T02:46:58;22.60;;;15.55;;
21754;SDS011;11039;50.028;19.938;2022-12-18T02:54:37;20.48;;;14.65;;
21754;SDS011;11039;50.028;19.938;2022-12-18T02:59:54;20.83;;;14.38;;
21754;SDS011;11039;50.028;19.938;2022-12-18T03:05:46;20.30;;;14.77;;
21754;SDS011;11039;50.028;19.938;2022-12-18T03:10:13;21.15;;;14.50;;
21754;SDS011;11039;50.028;19.938;2022-12-18T03:12:42;17.40;;;13.32;;
21754;SDS011;11039;50.028;19.938;2022-12-18T03:15:13;20.08;;;14.82;;
21754;SDS011;11039;50.028;19.938;2022-12-18T03:17:42;20.38;;;14.55;;
21754;SDS011;11039;50.028;19.938;2022-12-18T03:20:12;19.98;;;14.50;;
21754;SDS011;11039;50.028;19.938;2022-12-18T03:22:39;18.40;;;14.02;;
21754;SDS011;11039;50.028;19.938;2022-12-18T03:25:08;19.08;;;13.88;;
21754;SDS011;11039;50.028;19.938;2022-12-18T03:27:36;20.20;;;14.13;;
21754;SDS011;11039;50.028;19.938;2022-12-18T03:30:07;20.77;;;14.18;;
21754;SDS011;11039;50.028;19.938;2022-12-18T03:35:10;19.67;;;13.68;;
21754;SDS011;11039;50.028;19.938;2022-12-18T03:37:38;19.85;;;14.38;;
21754;SDS011;11039;50.028;19.938;2022-12-18T03:40:04;19.50;;;13.75;;
21754;SDS011;11039;50.028;19.938;2022-12-18T03:42:40;19.58;;;14.18;;
21754;SDS011;11039;50.028;19.938;2022-12-18T03:45:12;19.73;;;14.65;;
21754;SDS011;11039;50.028;19.938;2022-12-18T03:52:37;20.50;;;14.90;;
21754;SDS011;11039;50.028;19.938;2022-12-18T03:55:05;19.95;;;13.93;;
21754;SDS011;11039;50.028;19.938;2022-12-18T03:57:32;20.17;;;14.50;;
21754;SDS011;11039;50.028;19.938;2022-12-18T04:00:06;19.38;;;14.77;;
21754;SDS011;11039;50.028;19.938;2022-12-18T04:02:33;20.35;;;14.40;;
21754;SDS011;11039;50.028;19.938;2022-12-18T04:05:01;19.95;;;14.25;;
21754;SDS011;11039;50.028;19.938;2022-12-18T04:07:28;18.85;;;13.85;;
21754;SDS011;11039;50.028;19.938;2022-12-18T04:09:55;19.85;;;14.32;;
21754;SDS011;11039;50.028;19.938;2022-12-18T04:12:25;20.70;;;14.27;;
21754;SDS011;11039;50.028;19.938;2022-12-18T04:14:52;19.30;;;14.40;;
21754;SDS011;11039;50.028;19.938;2022-12-18T04:17:18;19.98;;;13.68;;
21754;SDS011;11039;50.028;19.938;2022-12-18T04:19:44;19.10;;;14.45;;
21754;SDS011;11039;50.028;19.938;2022-12-18T04:22:10;19.58;;;14.63;;
21754;SDS011;11039;50.028;19.938;2022-12-18T04:24:36;19.95;;;13.75;;
21754;SDS011;11039;50.028;19.938;2022-12-18T04:27:02;20.80;;;14.15;;
21754;SDS011;11039;50.028;19.938;2022-12-18T04:29:28;19.83;;;14.40;;
21754;SDS011;11039;50.028;19.938;2022-12-18T04:31:55;19.58;;;13.73;;
21754;SDS011;11039;50.028;19.938;2022-12-18T04:34:21;19.58;;;14.45;;
21754;SDS011;11039;50.028;19.938;2022-12-18T04:36:47;19.35;;;13.68;;
21754;SDS011;11039;50.028;19.938;2022-12-18T04:39:13;18.75;;;14.02;;
21754;SDS011;11039;50.028;19.938;2022-12-18T04:41:39;18.83;;;14.23;;
21754;SDS011;11039;50.028;19.938;2022-12-18T04:44:06;18.67;;;14.02;;
21754;SDS011;11039;50.028;19.938;2022-12-18T04:46:32;19.65;;;13.70;;
21754;SDS011;11039;50.028;19.938;2022-12-18T04:48:58;21.30;;;14.75;;
21754;SDS011;11039;50.028;19.938;2022-12-18T04:51:24;18.48;;;13.35;;
21754;SDS011;11039;50.028;19.938;2022-12-18T04:53:50;21.35;;;14.68;;
21754;SDS011;11039;50.028;19.938;2022-12-18T04:56:16;18.60;;;13.45;;
21754;SDS011;11039;50.028;19.938;2022-12-18T04:58:43;20.88;;;14.52;;
21754;SDS011;11039;50.028;19.938;2022-12-18T05:01:10;18.83;;;13.48;;
21754;SDS011;11039;50.028;19.938;2022-12-18T05:03:36;18.45;;;13.68;;
21754;SDS011;11039;50.028;19.938;2022-12-18T05:06:03;19.33;;;13.95;;
21754;SDS011;11039;50.028;19.938;2022-12-18T05:08:29;19.35;;;13.63;;
21754;SDS011;11039;50.028;19.938;2022-12-18T05:10:59;18.83;;;13.77;;
21754;SDS011;11039;50.028;19.938;2022-12-18T05:13:25;18.15;;;13.63;;
21754;SDS011;11039;50.028;19.938;2022-12-18T05:15:51;18.52;;;13.27;;
21754;SDS011;11039;50.028;19.938;2022-12-18T05:18:17;19.45;;;13.52;;
21754;SDS011;11039;50.028;19.938;2022-12-18T05:20:43;19.65;;;13.90;;
21754;SDS011;11039;50.028;19.938;2022-12-18T05:23:10;19.50;;;13.93;;
21754;SDS011;11039;50.028;19.938;2022-12-18T05:25:36;20.50;;;14.32;;
21754;SDS011;11039;50.028;19.938;2022-12-18T05:28:02;19.83;;;13.95;;
21754;SDS011;11039;50.028;19.938;2022-12-18T05:30:28;19.40;;;13.20;;
21754;SDS011;11039;50.028;19.938;2022-12-18T05:32:54;20.58;;;14.15;;
21754;SDS011;11039;50.028;19.938;2022-12-18T05:35:20;19.20;;;14.30;;
21754;SDS011;11039;50.028;19.938;2022-12-18T05:37:46;19.65;;;14.10;;
21754;SDS011;11039;50.028;19.938;2022-12-18T05:40:12;18.95;;;13.60;;
21754;SDS011;11039;50.028;19.938;2022-12-18T05:42:38;20.52;;;14.57;;
21754;SDS011;11039;50.028;19.938;2022-12-18T05:45:04;20.50;;;14.43;;
21754;SDS011;11039;50.028;19.938;2022-12-18T05:47:31;18.42;;;13.70;;
21754;SDS011;11039;50.028;19.938;2022-12-18T05:49:57;18.45;;;13.52;;
21754;SDS011;11039;50.028;19.938;2022-12-18T05:52:23;21.10;;;14.52;;
21754;SDS011;11039;50.028;19.938;2022-12-18T05:54:49;20.10;;;13.73;;
21754;SDS011;11039;50.028;19.938;2022-12-18T05:57:15;19.20;;;13.70;;
21754;SDS011;11039;50.028;19.938;2022-12-18T05:59:41;18.33;;;13.38;;
21754;SDS011;11039;50.028;19.938;2022-12-18T06:02:07;19.00;;;13.68;;
21754;SDS011;11039;50.028;19.938;2022-12-18T06:04:33;18.60;;;13.48;;
21754;SDS011;11039;50.028;19.938;2022-12-18T06:06:59;18.52;;;13.48;;
21754;SDS011;11039;50.028;19.938;2022-12-18T06:09:25;19.55;;;14.00;;
21754;SDS011;11039;50.028;19.938;2022-12-18T06:11:51;18.38;;;13.32;;
21754;SDS011;11039;50.028;19.938;2022-12-18T06:14:18;20.02;;;14.18;;
21754;SDS011;11039;50.028;19.938;2022-12-18T06:16:44;18.27;;;13.30;;
21754;SDS011;11039;50.028;19.938;2022-12-18T06:19:12;20.52;;;14.45;;
21754;SDS011;11039;50.028;19.938;2022-12-18T06:21:38;20.73;;;14.15;;
21754;SDS011;11039;50.028;19.938;2022-12-18T06:24:04;19.25;;;12.65;;
21754;SDS011;11039;50.028;19.938;2022-12-18T06:26:31;19.42;;;13.75;;
21754;SDS011;11039;50.028;19.938;2022-12-18T06:28:57;21.27;;;14.10;;
21754;SDS011;11039;50.028;19.938;2022-12-18T06:31:23;18.45;;;12.57;;
21754;SDS011;11039;50.028;19.938;2022-12-18T06:33:49;20.63;;;13.73;;
21754;SDS011;11039;50.028;19.938;2022-12-18T06:36:15;18.90;;;14.00;;
21754;SDS011;11039;50.028;19.938;2022-12-18T06:38:42;18.08;;;13.77;;
21754;SDS011;11039;50.028;19.938;2022-12-18T06:41:12;18.42;;;13.75;;
21754;SDS011;11039;50.028;19.938;2022-12-18T06:43:38;18.65;;;13.50;;
21754;SDS011;11039;50.028;19.938;2022-12-18T06:46:05;19.38;;;13.45;;
21754;SDS011;11039;50.028;19.938;2022-12-18T06:48:31;18.70;;;13.38;;
21754;SDS011;11039;50.028;19.938;2022-12-18T06:50:57;18.45;;;13.73;;
21754;SDS011;11039;50.028;19.938;2022-12-18T06:53:23;19.60;;;13.40;;
21754;SDS011;11039;50.028;19.938;2022-12-18T06:55:49;19.33;;;13.82;;
21754;SDS011;11039;50.028;19.938;2022-12-18T06:58:16;19.15;;;13.65;;
21754;SDS011;11039;50.028;19.938;2022-12-18T07:00:42;18.50;;;14.07;;
21754;SDS011;11039;50.028;19.938;2022-12-18T07:03:08;20.30;;;13.65;;
21754;SDS011;11039;50.028;19.938;2022-12-18T07:05:34;18.88;;;13.35;;
21754;SDS011;11039;50.028;19.938;2022-12-18T07:08:04;19.92;;;14.20;;
21754;SDS011;11039;50.028;19.938;2022-12-18T07:10:31;18.85;;;13.63;;
21754;SDS011;11039;50.028;19.938;2022-12-18T07:12:57;18.20;;;12.88;;
21754;SDS011;11039;50.028;19.938;2022-12-18T07:15:23;19.58;;;13.82;;
21754;SDS011;11039;50.028;19.938;2022-12-18T07:17:49;19.10;;;13.75;;
21754;SDS011;11039;50.028;19.938;2022-12-18T07:20:15;19.08;;;13.85;;
21754;SDS011;11039;50.028;19.938;2022-12-18T07:22:41;19.55;;;14.38;;
21754;SDS011;11039;50.028;19.938;2022-12-18T07:25:07;19.77;;;14.18;;
21754;SDS011;11039;50.028;19.938;2022-12-18T07:27:33;20.85;;;13.80;;
21754;SDS011;11039;50.028;19.938;2022-12-18T07:29:59;19.20;;;14.05;;
21754;SDS011;11039;50.028;19.938;2022-12-18T07:32:25;18.63;;;13.50;;
21754;SDS011;11039;50.028;19.938;2022-12-18T07:34:51;18.75;;;13.80;;
21754;SDS011;11039;50.028;19.938;2022-12-18T07:37:17;20.80;;;14.15;;
21754;SDS011;11039;50.028;19.938;2022-12-18T07:39:43;18.88;;;13.55;;
21754;SDS011;11039;50.028;19.938;2022-12-18T07:42:09;19.40;;;14.07;;
21754;SDS011;11039;50.028;19.938;2022-12-18T07:44:54;19.00;;;13.55;;
21754;SDS011;11039;50.028;19.938;2022-12-18T07:47:20;20.25;;;14.15;;
21754;SDS011;11039;50.028;19.938;2022-12-18T07:49:46;19.70;;;14.15;;
21754;SDS011;11039;50.028;19.938;2022-12-18T07:52:12;19.83;;;14.25;;
21754;SDS011;11039;50.028;19.938;2022-12-18T07:54:38;20.20;;;14.20;;
21754;SDS011;11039;50.028;19.938;2022-12-18T07:57:05;19.05;;;13.70;;
21754;SDS011;11039;50.028;19.938;2022-12-18T07:59:31;21.35;;;14.20;;
21754;SDS011;11039;50.028;19.938;2022-12-18T08:01:57;19.27;;;14.10;;
21754;SDS011;11039;50.028;19.938;2022-12-18T08:04:23;19.85;;;13.88;;
21754;SDS011;11039;50.028;19.938;2022-12-18T08:06:49;20.17;;;14.20;;
21754;SDS011;11039;50.028;19.938;2022-12-18T08:09:15;21.20;;;14.57;;
21754;SDS011;11039;50.028;19.938;2022-12-18T08:11:41;21.50;;;14.63;;
21754;SDS011;11039;50.028;19.938;2022-12-18T08:14:08;21.50;;;14.10;;
21754;SDS011;11039;50.028;19.938;2022-12-18T08:16:34;19.92;;;14.32;;
21754;SDS011;11039;50.028;19.938;2022-12-18T08:19:00;19.73;;;13.73;;
21754;SDS011;11039;50.028;19.938;2022-12-18T08:21:28;22.10;;;15.05;;
21754;SDS011;11039;50.028;19.938;2022-12-18T08:23:55;20.05;;;14.05;;
21754;SDS011;11039;50.028;19.938;2022-12-18T08:26:21;19.10;;;14.13;;
21754;SDS011;11039;50.028;19.938;2022-12-18T08:28:48;21.40;;;14.23;;
21754;SDS011;11039;50.028;19.938;2022-12-18T08:31:14;21.38;;;14.40;;
21754;SDS011;11039;50.028;19.938;2022-12-18T08:33:40;21.48;;;15.00;;
21754;SDS011;11039;50.028;19.938;2022-12-18T08:36:06;20.15;;;13.68;;
21754;SDS011;11039;50.028;19.938;2022-12-18T08:38:32;22.27;;;15.25;;
21754;SDS011;11039;50.028;19.938;2022-12-18T08:41:05;20.88;;;14.60;;
21754;SDS011;11039;50.028;19.938;2022-12-18T08:43:32;22.38;;;15.00;;
21754;SDS011;11039;50.028;19.938;2022-12-18T08:46:20;22.63;;;14.93;;
21754;SDS011;11039;50.028;19.938;2022-12-18T08:48:47;20.67;;;14.73;;
21754;SDS011;11039;50.028;19.938;2022-12-18T08:51:15;23.02;;;14.57;;
21754;SDS011;11039;50.028;19.938;2022-12-18T08:53:42;22.15;;;14.50;;
21754;SDS011;11039;50.028;19.938;2022-12-18T08:56:08;23.40;;;15.98;;
21754;SDS011;11039;50.028;19.938;2022-12-18T08:58:34;22.20;;;14.98;;
21754;SDS011;11039;50.028;19.938;2022-12-18T09:01:00;21.80;;;14.60;;
21754;SDS011;11039;50.028;19.938;2022-12-18T09:03:27;21.40;;;14.80;;
21754;SDS011;11039;50.028;19.938;2022-12-18T09:05:53;22.27;;;15.15;;
21754;SDS011;11039;50.028;19.938;2022-12-18T09:08:19;21.98;;;15.05;;
21754;SDS011;11039;50.028;19.938;2022-12-18T09:10:45;21.40;;;15.10;;
21754;SDS011;11039;50.028;19.938;2022-12-18T09:13:12;22.13;;;15.10;;
21754;SDS011;11039;50.028;19.938;2022-12-18T09:15:44;20.80;;;14.43;;
21754;SDS011;11039;50.028;19.938;2022-12-18T09:18:11;18.55;;;13.68;;
21754;SDS011;11039;50.028;19.938;2022-12-18T09:20:37;20.75;;;14.52;;
21754;SDS011;11039;50.028;19.938;2022-12-18T09:23:04;21.65;;;15.07;;
21754;SDS011;11039;50.028;19.938;2022-12-18T09:25:30;21.65;;;15.18;;
21754;SDS011;11039;50.028;19.938;2022-12-18T09:28:01;24.70;;;16.83;;
21754;SDS011;11039;50.028;19.938;2022-12-18T09:30:27;28.67;;;21.10;;
21754;SDS011;11039;50.028;19.938;2022-12-18T09:32:53;28.80;;;19.98;;
21754;SDS011;11039;50.028;19.938;2022-12-18T09:35:19;30.20;;;21.05;;
21754;SDS011;11039;50.028;19.938;2022-12-18T09:37:45;30.25;;;21.17;;
21754;SDS011;11039;50.028;19.938;2022-12-18T09:40:19;32.38;;;22.02;;
21754;SDS011;11039;50.028;19.938;2022-12-18T09:42:46;37.00;;;22.75;;
21754;SDS011;11039;50.028;19.938;2022-12-18T09:45:13;34.63;;;22.85;;
21754;SDS011;11039;50.028;19.938;2022-12-18T09:47:40;33.65;;;23.42;;
21754;SDS011;11039;50.028;19.938;2022-12-18T09:50:17;38.00;;;23.40;;
21754;SDS011;11039;50.028;19.938;2022-12-18T09:52:48;37.45;;;24.50;;
21754;SDS011;11039;50.028;19.938;2022-12-18T09:58:06;37.83;;;24.42;;
21754;SDS011;11039;50.028;19.938;2022-12-18T10:00:33;38.08;;;25.77;;
21754;SDS011;11039;50.028;19.938;2022-12-18T10:02:59;38.85;;;24.85;;
21754;SDS011;11039;50.028;19.938;2022-12-18T10:05:35;36.55;;;23.95;;
21754;SDS011;11039;50.028;19.938;2022-12-18T10:08:11;37.03;;;24.35;;
21754;SDS011;11039;50.028;19.938;2022-12-18T10:10:48;38.20;;;25.38;;
21754;SDS011;11039;50.028;19.938;2022-12-18T10:13:24;38.17;;;25.33;;
21754;SDS011;11039;50.028;19.938;2022-12-18T10:20:56;39.28;;;26.30;;
21754;SDS011;11039;50.028;19.938;2022-12-18T10:26:04;39.92;;;26.33;;
21754;SDS011;11039;50.028;19.938;2022-12-18T10:28:31;41.72;;;26.42;;
21754;SDS011;11039;50.028;19.938;2022-12-18T10:30:57;40.55;;;26.67;;
21754;SDS011;11039;50.028;19.938;2022-12-18T10:33:27;40.00;;;25.60;;
21754;SDS011;11039;50.028;19.938;2022-12-18T10:35:53;39.90;;;26.05;;
21754;SDS011;11039;50.028;19.938;2022-12-18T10:38:24;38.47;;;25.92;;
21754;SDS011;11039;50.028;19.938;2022-12-18T10:40:52;35.55;;;24.52;;
21754;SDS011;11039;50.028;19.938;2022-12-18T10:43:23;38.42;;;24.95;;
21754;SDS011;11039;50.028;19.938;2022-12-18T10:45:59;41.75;;;24.92;;
21754;SDS011;11039;50.028;19.938;2022-12-18T10:48:26;43.35;;;27.92;;
21754;SDS011;11039;50.028;19.938;2022-12-18T10:50:52;40.30;;;26.27;;
21754;SDS011;11039;50.028;19.938;2022-12-18T10:53:19;35.35;;;23.48;;
21754;SDS011;11039;50.028;19.938;2022-12-18T10:55:46;33.45;;;21.23;;
21754;SDS011;11039;50.028;19.938;2022-12-18T10:58:34;32.65;;;21.95;;
21754;SDS011;11039;50.028;19.938;2022-12-18T11:03:36;35.65;;;22.38;;
21754;SDS011;11039;50.028;19.938;2022-12-18T11:06:04;31.77;;;21.35;;
21754;SDS011;11039;50.028;19.938;2022-12-18T11:08:30;33.42;;;21.00;;
21754;SDS011;11039;50.028;19.938;2022-12-18T11:10:56;30.02;;;20.38;;
21754;SDS011;11039;50.028;19.938;2022-12-18T11:13:23;31.27;;;19.48;;
21754;SDS011;11039;50.028;19.938;2022-12-18T11:15:50;33.55;;;20.52;;
21754;SDS011;11039;50.028;19.938;2022-12-18T11:18:16;29.27;;;19.35;;
21754;SDS011;11039;50.028;19.938;2022-12-18T11:20:44;30.45;;;20.38;;
21754;SDS011;11039;50.028;19.938;2022-12-18T11:23:15;28.48;;;19.38;;
21754;SDS011;11039;50.028;19.938;2022-12-18T11:25:41;26.88;;;19.08;;
21754;SDS011;11039;50.028;19.938;2022-12-18T11:28:36;31.52;;;20.67;;
21754;SDS011;11039;50.028;19.938;2022-12-18T11:31:11;27.65;;;19.13;;
21754;SDS011;11039;50.028;19.938;2022-12-18T11:33:39;26.45;;;19.17;;
21754;SDS011;11039;50.028;19.938;2022-12-18T11:36:07;27.35;;;18.60;;
21754;SDS011;11039;50.028;19.938;2022-12-18T11:38:34;27.98;;;18.77;;
21754;SDS011;11039;50.028;19.938;2022-12-18T11:41:48;27.98;;;18.83;;
21754;SDS011;11039;50.028;19.938;2022-12-18T11:43:50;25.98;;;17.95;;
21754;SDS011;11039;50.028;19.938;2022-12-18T11:51:53;35.10;;;23.40;;
21754;SDS011;11039;50.028;19.938;2022-12-18T11:54:22;35.80;;;23.67;;
21754;SDS011;11039;50.028;19.938;2022-12-18T11:56:49;35.40;;;24.67;;
21754;SDS011;11039;50.028;19.938;2022-12-18T12:09:10;33.70;;;20.67;;
21754;SDS011;11039;50.028;19.938;2022-12-18T12:14:33;31.65;;;19.83;;
21754;SDS011;11039;50.028;19.938;2022-12-18T12:22:35;28.40;;;18.55;;
21754;SDS011;11039;50.028;19.938;2022-12-18T12:30:07;29.42;;;18.55;;
21754;SDS011;11039;50.028;19.938;2022-12-18T12:32:52;25.88;;;17.00;;
21754;SDS011;11039;50.028;19.938;2022-12-18T12:40:14;26.17;;;17.00;;
21754;SDS011;11039;50.028;19.938;2022-12-18T12:42:44;24.77;;;16.38;;
21754;SDS011;11039;50.028;19.938;2022-12-18T12:45:49;27.48;;;16.25;;
21754;SDS011;11039;50.028;19.938;2022-12-18T12:51:02;24.92;;;16.25;;
21754;SDS011;11039;50.028;19.938;2022-12-18T12:53:31;25.05;;;16.13;;
21754;SDS011;11039;50.028;19.938;2022-12-18T12:55:58;27.67;;;15.95;;
21754;SDS011;11039;50.028;19.938;2022-12-18T12:58:33;23.42;;;15.55;;
21754;SDS011;11039;50.028;19.938;2022-12-18T13:01:09;25.17;;;15.02;;
21754;SDS011;11039;50.028;19.938;2022-12-18T13:06:03;24.25;;;15.45;;
21754;SDS011;11039;50.028;19.938;2022-12-18T13:08:30;22.02;;;14.93;;
21754;SDS011;11039;50.028;19.938;2022-12-18T13:10:57;21.48;;;14.63;;
21754;SDS011;11039;50.028;19.938;2022-12-18T13:13:55;22.67;;;14.15;;
21754;SDS011;11039;50.028;19.938;2022-12-18T13:16:22;22.15;;;14.02;;
21754;SDS011;11039;50.028;19.938;2022-12-18T13:18:50;20.85;;;13.10;;
21754;SDS011;11039;50.028;19.938;2022-12-18T13:21:27;19.90;;;13.68;;
21754;SDS011;11039;50.028;19.938;2022-12-18T13:23:53;20.63;;;13.32;;
21754;SDS011;11039;50.028;19.938;2022-12-18T13:28:53;20.60;;;12.95;;
21754;SDS011;11039;50.028;19.938;2022-12-18T13:33:48;19.48;;;13.05;;
21754;SDS011;11039;50.028;19.938;2022-12-18T13:36:28;21.42;;;12.95;;
21754;SDS011;11039;50.028;19.938;2022-12-18T13:41:43;17.60;;;12.40;;
21754;SDS011;11039;50.028;19.938;2022-12-18T13:50:20;20.20;;;12.85;;
21754;SDS011;11039;50.028;19.938;2022-12-18T13:52:48;16.48;;;12.20;;
21754;SDS011;11039;50.028;19.938;2022-12-18T13:55:15;18.83;;;12.82;;
21754;SDS011;11039;50.028;19.938;2022-12-18T13:57:41;17.45;;;12.07;;
21754;SDS011;11039;50.028;19.938;2022-12-18T14:02:44;17.85;;;12.07;;
21754;SDS011;11039;50.028;19.938;2022-12-18T14:05:21;17.52;;;12.43;;
21754;SDS011;11039;50.028;19.938;2022-12-18T14:07:47;18.17;;;11.50;;
21754;SDS011;11039;50.028;19.938;2022-12-18T14:10:13;17.67;;;12.05;;
21754;SDS011;11039;50.028;19.938;2022-12-18T14:12:44;18.25;;;11.98;;
21754;SDS011;11039;50.028;19.938;2022-12-18T14:17:52;16.80;;;11.52;;
21754;SDS011;11039;50.028;19.938;2022-12-18T14:20:18;17.73;;;12.65;;
21754;SDS011;11039;50.028;19.938;2022-12-18T14:22:45;18.42;;;12.25;;
21754;SDS011;11039;50.028;19.938;2022-12-18T14:28:02;16.50;;;12.20;;
21754;SDS011;11039;50.028;19.938;2022-12-18T14:30:31;17.63;;;12.10;;
21754;SDS011;11039;50.028;19.938;2022-12-18T14:35:26;16.50;;;11.98;;
21754;SDS011;11039;50.028;19.938;2022-12-18T14:37:53;16.88;;;12.30;;
21754;SDS011;11039;50.028;19.938;2022-12-18T14:40:19;17.17;;;12.43;;
21754;SDS011;11039;50.028;19.938;2022-12-18T14:42:45;18.60;;;12.65;;
21754;SDS011;11039;50.028;19.938;2022-12-18T14:47:56;19.65;;;13.23;;
21754;SDS011;11039;50.028;19.938;2022-12-18T14:50:22;19.20;;;13.57;;
21754;SDS011;11039;50.028;19.938;2022-12-18T14:52:48;18.90;;;12.63;;
21754;SDS011;11039;50.028;19.938;2022-12-18T14:55:15;17.00;;;12.23;;
21754;SDS011;11039;50.028;19.938;2022-12-18T14:57:41;18.70;;;13.02;;
21754;SDS011;11039;50.028;19.938;2022-12-18T15:00:16;20.63;;;14.18;;
21754;SDS011;11039;50.028;19.938;2022-12-18T15:02:43;18.73;;;13.13;;
21754;SDS011;11039;50.028;19.938;2022-12-18T15:07:43;21.02;;;14.43;;
21754;SDS011;11039;50.028;19.938;2022-12-18T15:12:45;17.80;;;12.85;;
21754;SDS011;11039;50.028;19.938;2022-12-18T15:17:58;18.65;;;13.52;;
21754;SDS011;11039;50.028;19.938;2022-12-18T15:20:24;18.90;;;14.27;;
21754;SDS011;11039;50.028;19.938;2022-12-18T15:22:50;22.80;;;14.00;;
21754;SDS011;11039;50.028;19.938;2022-12-18T15:25:26;21.13;;;14.27;;
21754;SDS011;11039;50.028;19.938;2022-12-18T15:27:53;18.67;;;13.25;;
21754;SDS011;11039;50.028;19.938;2022-12-18T15:30:23;24.20;;;14.13;;
21754;SDS011;11039;50.028;19.938;2022-12-18T15:32:51;20.75;;;12.88;;
21754;SDS011;11039;50.028;19.938;2022-12-18T15:35:21;19.30;;;13.43;;
21754;SDS011;11039;50.028;19.938;2022-12-18T15:37:48;19.40;;;14.43;;
21754;SDS011;11039;50.028;19.938;2022-12-18T15:40:15;20.02;;;13.75;;
21754;SDS011;11039;50.028;19.938;2022-12-18T15:42:42;20.17;;;13.75;;
21754;SDS011;11039;50.028;19.938;2022-12-18T15:45:27;21.58;;;14.43;;
21754;SDS011;11039;50.028;19.938;2022-12-18T15:47:53;20.35;;;13.60;;
21754;SDS011;11039;50.028;19.938;2022-12-18T15:50:19;21.35;;;13.98;;
21754;SDS011;11039;50.028;19.938;2022-12-18T15:52:46;18.88;;;14.35;;
21754;SDS011;11039;50.028;19.938;2022-12-18T15:55:14;20.58;;;14.48;;
21754;SDS011;11039;50.028;19.938;2022-12-18T15:57:59;20.98;;;14.85;;
21754;SDS011;11039;50.028;19.938;2022-12-18T16:00:25;22.83;;;15.20;;
21754;SDS011;11039;50.028;19.938;2022-12-18T16:02:51;20.48;;;14.98;;
21754;SDS011;11039;50.028;19.938;2022-12-18T16:05:17;22.25;;;15.55;;
21754;SDS011;11039;50.028;19.938;2022-12-18T16:07:44;20.80;;;14.57;;
21754;SDS011;11039;50.028;19.938;2022-12-18T16:10:10;22.00;;;15.60;;
21754;SDS011;11039;50.028;19.938;2022-12-18T16:12:36;21.63;;;15.55;;
21754;SDS011;11039;50.028;19.938;2022-12-18T16:15:03;22.23;;;15.35;;